createdAt,value
2022-10-06T00:00:46.015Z,935.30
2022-10-06T00:01:46.078Z,935.33
2022-10-06T00:02:46.113Z,935.33
2022-10-06T00:03:46.064Z,935.29
2022-10-06T00:04:46.073Z,935.33
2022-10-06T00:05:46.083Z,935.25
2022-10-06T00:06:46.099Z,935.28
2022-10-06T00:07:46.114Z,935.27
2022-10-06T00:08:46.131Z,935.28
2022-10-06T00:09:46.142Z,935.25
2022-10-06T00:10:46.158Z,935.26
2022-10-06T00:11:46.174Z,935.33
2022-10-06T00:12:46.189Z,935.38
2022-10-06T00:13:46.198Z,935.45
2022-10-06T00:14:46.214Z,935.47
2022-10-06T00:15:46.288Z,935.48
2022-10-06T00:16:46.245Z,935.49
2022-10-06T00:17:46.259Z,935.52
2022-10-06T00:18:46.274Z,935.49
2022-10-06T00:19:46.288Z,935.50
2022-10-06T00:20:46.302Z,935.46
2022-10-06T00:21:46.315Z,935.45
2022-10-06T00:22:46.331Z,935.44
2022-10-06T00:23:46.348Z,935.47
2022-10-06T00:24:46.359Z,935.45
2022-10-06T00:25:46.375Z,935.44
2022-10-06T00:26:46.388Z,935.48
2022-10-06T00:27:46.404Z,935.44
2022-10-06T00:28:46.504Z,935.47
2022-10-06T00:29:46.433Z,935.43
2022-10-06T00:30:46.552Z,935.47
2022-10-06T00:31:46.479Z,935.51
2022-10-06T00:32:46.476Z,935.53
2022-10-06T00:33:46.491Z,935.53
2022-10-06T00:34:46.501Z,935.57
2022-10-06T00:35:46.517Z,935.49
2022-10-06T00:36:46.533Z,935.55
2022-10-06T00:37:46.545Z,935.52
2022-10-06T00:38:46.562Z,935.50
2022-10-06T00:39:46.577Z,935.54
2022-10-06T00:40:46.591Z,935.51
2022-10-06T00:41:46.603Z,935.49
2022-10-06T00:42:46.618Z,935.50
2022-10-06T00:43:46.637Z,935.52
2022-10-06T00:44:46.648Z,935.59
2022-10-06T00:45:46.663Z,935.59
2022-10-06T00:46:46.749Z,935.56
2022-10-06T00:47:46.718Z,935.57
2022-10-06T00:48:46.704Z,935.59
2022-10-06T00:49:46.721Z,935.60
2022-10-06T00:50:46.731Z,935.56
2022-10-06T00:51:46.747Z,935.59
2022-10-06T00:52:46.762Z,935.54
2022-10-06T00:53:46.776Z,935.54
2022-10-06T00:54:46.790Z,935.51
2022-10-06T00:55:46.804Z,935.48
2022-10-06T00:56:46.823Z,935.51
2022-10-06T00:57:46.833Z,935.54
2022-10-06T00:58:46.847Z,935.51
2022-10-06T00:59:46.863Z,935.47
2022-10-06T01:00:46.878Z,935.50
2022-10-06T01:01:46.925Z,935.52
2022-10-06T01:02:47.017Z,935.52
2022-10-06T01:03:46.937Z,935.52
2022-10-06T01:04:46.935Z,935.56
2022-10-06T01:05:46.948Z,935.55
2022-10-06T01:06:46.961Z,935.52
2022-10-06T01:07:46.978Z,935.51
2022-10-06T01:08:46.993Z,935.55
2022-10-06T01:09:47.007Z,935.55
2022-10-06T01:10:47.022Z,935.58
2022-10-06T01:11:47.034Z,935.60
2022-10-06T01:12:47.048Z,935.58
2022-10-06T01:13:47.061Z,935.58
2022-10-06T01:14:47.076Z,935.60
2022-10-06T01:15:47.144Z,935.61
2022-10-06T01:16:47.108Z,935.66
2022-10-06T01:17:47.193Z,935.66
2022-10-06T01:18:47.134Z,935.70
2022-10-06T01:19:47.166Z,935.72
2022-10-06T01:20:47.165Z,935.73
2022-10-06T01:21:47.179Z,935.72
2022-10-06T01:22:47.191Z,935.74
2022-10-06T01:23:47.208Z,935.73
2022-10-06T01:24:47.221Z,935.75
2022-10-06T01:25:47.233Z,935.74
2022-10-06T01:26:47.249Z,935.75
2022-10-06T01:27:47.264Z,935.74
2022-10-06T01:28:47.329Z,935.75
2022-10-06T01:29:47.292Z,935.72
2022-10-06T01:30:47.343Z,935.70
2022-10-06T01:31:47.321Z,935.72
2022-10-06T01:32:47.335Z,935.68
2022-10-06T01:33:47.350Z,935.69
2022-10-06T01:34:47.364Z,935.69
2022-10-06T01:35:47.396Z,935.68
2022-10-06T01:36:47.392Z,935.71
2022-10-06T01:37:47.413Z,935.68
2022-10-06T01:38:47.420Z,935.75
2022-10-06T01:39:47.637Z,935.72
2022-10-06T01:40:47.448Z,935.74
2022-10-06T01:41:47.462Z,935.69
2022-10-06T01:42:47.479Z,935.69
2022-10-06T01:43:47.496Z,935.70
2022-10-06T01:44:47.506Z,935.65
2022-10-06T01:45:47.521Z,935.62
2022-10-06T01:46:47.576Z,935.58
2022-10-06T01:47:47.549Z,935.56
2022-10-06T01:48:47.563Z,935.52
2022-10-06T01:49:47.576Z,935.51
2022-10-06T01:50:47.591Z,935.48
2022-10-06T01:51:47.623Z,935.47
2022-10-06T01:52:47.621Z,935.47
2022-10-06T01:53:47.634Z,935.47
2022-10-06T01:54:47.649Z,935.51
2022-10-06T01:55:47.662Z,935.47
2022-10-06T01:56:47.676Z,935.46
2022-10-06T01:57:48.716Z,935.46
2022-10-06T01:58:47.704Z,935.39
2022-10-06T01:59:51.560Z,935.38
2022-10-06T02:00:47.733Z,935.31
2022-10-06T02:01:47.849Z,935.29
2022-10-06T02:02:47.760Z,935.25
2022-10-06T02:03:47.776Z,935.21
2022-10-06T02:04:47.789Z,935.19
2022-10-06T02:05:47.807Z,935.16
2022-10-06T02:06:47.818Z,935.13
2022-10-06T02:07:47.852Z,935.10
2022-10-06T02:08:47.849Z,935.03
2022-10-06T02:09:47.860Z,935.05
2022-10-06T02:10:47.874Z,934.95
2022-10-06T02:11:47.891Z,934.96
2022-10-06T02:12:47.905Z,934.96
2022-10-06T02:13:47.919Z,934.98
2022-10-06T02:14:47.931Z,934.97
2022-10-06T02:15:48.000Z,934.98
2022-10-06T02:16:47.961Z,934.98
2022-10-06T02:17:47.977Z,934.97
2022-10-06T02:18:47.988Z,934.95
2022-10-06T02:19:48.005Z,934.91
2022-10-06T02:20:48.017Z,934.90
2022-10-06T02:21:48.033Z,934.89
2022-10-06T02:22:48.049Z,934.86
2022-10-06T02:23:48.079Z,934.88
2022-10-06T02:24:48.075Z,934.88
2022-10-06T02:25:48.088Z,934.88
2022-10-06T02:26:48.104Z,934.94
2022-10-06T02:27:48.116Z,934.93
2022-10-06T02:28:48.197Z,934.93
2022-10-06T02:29:48.144Z,934.95
2022-10-06T02:30:48.158Z,935.01
2022-10-06T02:31:48.179Z,934.95
2022-10-06T02:32:48.187Z,934.99
2022-10-06T02:33:48.204Z,935.03
2022-10-06T02:34:48.215Z,935.04
2022-10-06T02:35:48.230Z,935.00
2022-10-06T02:36:48.246Z,935.03
2022-10-06T02:37:48.260Z,935.02
2022-10-06T02:38:48.272Z,935.01
2022-10-06T02:39:48.307Z,935.03
2022-10-06T02:40:48.300Z,935.02
2022-10-06T02:41:48.315Z,935.01
2022-10-06T02:42:48.327Z,935.04
2022-10-06T02:43:48.344Z,935.08
2022-10-06T02:44:48.357Z,935.05
2022-10-06T02:45:48.371Z,935.10
2022-10-06T02:46:48.509Z,935.12
2022-10-06T02:47:48.401Z,935.12
2022-10-06T02:48:48.415Z,935.15
2022-10-06T02:49:48.427Z,935.19
2022-10-06T02:50:48.440Z,935.17
2022-10-06T02:51:48.458Z,935.18
2022-10-06T02:52:48.470Z,935.20
2022-10-06T02:53:48.487Z,935.23
2022-10-06T02:54:48.497Z,935.26
2022-10-06T02:55:48.540Z,935.23
2022-10-06T02:56:48.527Z,935.25
2022-10-06T02:57:48.544Z,935.23
2022-10-06T02:58:48.554Z,935.21
2022-10-06T02:59:48.569Z,935.14
2022-10-06T03:00:48.584Z,935.14
2022-10-06T03:01:48.733Z,935.08
2022-10-06T03:02:48.643Z,935.05
2022-10-06T03:03:48.626Z,935.04
2022-10-06T03:04:48.641Z,935.05
2022-10-06T03:05:48.653Z,935.05
2022-10-06T03:06:48.677Z,935.05
2022-10-06T03:07:48.682Z,935.05
2022-10-06T03:08:48.696Z,934.98
2022-10-06T03:09:48.711Z,935.02
2022-10-06T03:10:48.724Z,935.00
2022-10-06T03:11:48.881Z,935.01
2022-10-06T03:12:48.754Z,934.99
2022-10-06T03:13:48.765Z,935.02
2022-10-06T03:14:48.785Z,935.05
2022-10-06T03:15:48.824Z,935.06
2022-10-06T03:16:48.808Z,935.09
2022-10-06T03:17:48.822Z,935.08
2022-10-06T03:18:48.836Z,935.13
2022-10-06T03:19:48.858Z,935.10
2022-10-06T03:20:48.866Z,935.10
2022-10-06T03:21:48.879Z,935.02
2022-10-06T03:22:48.893Z,935.03
2022-10-06T03:23:48.906Z,934.97
2022-10-06T03:24:49.012Z,934.95
2022-10-06T03:25:48.935Z,934.87
2022-10-06T03:26:48.949Z,934.88
2022-10-06T03:27:49.001Z,934.88
2022-10-06T03:28:49.080Z,934.82
2022-10-06T03:29:48.997Z,934.78
2022-10-06T03:30:49.007Z,934.76
2022-10-06T03:31:49.134Z,934.78
2022-10-06T03:32:49.034Z,934.77
2022-10-06T03:33:49.149Z,934.73
2022-10-06T03:34:49.061Z,934.72
2022-10-06T03:35:49.085Z,934.72
2022-10-06T03:36:49.090Z,934.69
2022-10-06T03:37:49.104Z,934.66
2022-10-06T03:38:49.120Z,934.69
2022-10-06T03:39:49.132Z,934.64
2022-10-06T03:40:49.145Z,934.62
2022-10-06T03:41:49.160Z,934.59
2022-10-06T03:42:49.174Z,934.54
2022-10-06T03:43:49.334Z,934.54
2022-10-06T03:44:49.204Z,934.50
2022-10-06T03:45:49.217Z,934.49
2022-10-06T03:46:49.386Z,934.49
2022-10-06T03:47:49.244Z,934.48
2022-10-06T03:48:49.257Z,934.49
2022-10-06T03:49:49.272Z,934.48
2022-10-06T03:50:49.289Z,934.47
2022-10-06T03:51:49.301Z,934.43
2022-10-06T03:52:49.315Z,934.44
2022-10-06T03:53:49.328Z,934.41
2022-10-06T03:54:49.351Z,934.36
2022-10-06T03:55:49.357Z,934.35
2022-10-06T03:56:49.373Z,934.36
2022-10-06T03:57:49.387Z,934.37
2022-10-06T03:58:49.398Z,934.35
2022-10-06T03:59:49.544Z,934.34
2022-10-06T04:00:49.461Z,934.31
2022-10-06T04:01:49.509Z,934.28
2022-10-06T04:02:49.454Z,934.28
2022-10-06T04:03:49.468Z,934.24
2022-10-06T04:04:49.485Z,934.29
2022-10-06T04:05:49.495Z,934.33
2022-10-06T04:06:49.512Z,934.33
2022-10-06T04:07:49.523Z,934.35
2022-10-06T04:08:49.569Z,934.33
2022-10-06T04:09:49.553Z,934.32
2022-10-06T04:10:49.566Z,934.28
2022-10-06T04:11:49.579Z,934.26
2022-10-06T04:12:49.595Z,934.25
2022-10-06T04:13:49.611Z,934.19
2022-10-06T04:14:49.622Z,934.17
2022-10-06T04:15:49.654Z,934.18
2022-10-06T04:16:49.653Z,934.12
2022-10-06T04:17:49.667Z,934.10
2022-10-06T04:18:49.676Z,934.07
2022-10-06T04:19:49.692Z,934.11
2022-10-06T04:20:49.706Z,934.08
2022-10-06T04:21:49.719Z,934.06
2022-10-06T04:22:49.732Z,934.07
2022-10-06T04:23:49.750Z,934.07
2022-10-06T04:24:49.761Z,934.05
2022-10-06T04:25:53.824Z,934.06
2022-10-06T04:26:49.788Z,934.08
2022-10-06T04:27:49.803Z,934.04
2022-10-06T04:28:49.894Z,934.05
2022-10-06T04:29:49.831Z,934.01
2022-10-06T04:30:49.845Z,934.06
2022-10-06T04:31:49.950Z,934.08
2022-10-06T04:32:49.872Z,934.03
2022-10-06T04:33:49.887Z,934.04
2022-10-06T04:34:49.901Z,933.98
2022-10-06T04:35:49.915Z,933.94
2022-10-06T04:36:49.929Z,933.88
2022-10-06T04:37:49.943Z,933.82
2022-10-06T04:38:49.959Z,933.84
2022-10-06T04:39:49.971Z,933.84
2022-10-06T04:40:49.984Z,933.81
2022-10-06T04:41:49.997Z,933.81
2022-10-06T04:42:50.013Z,933.75
2022-10-06T04:43:50.026Z,933.68
2022-10-06T04:44:50.040Z,933.69
2022-10-06T04:45:50.129Z,933.64
2022-10-06T04:46:50.162Z,933.63
2022-10-06T04:47:50.103Z,933.63
2022-10-06T04:48:50.097Z,933.63
2022-10-06T04:49:50.112Z,933.64
2022-10-06T04:50:50.122Z,933.66
2022-10-06T04:51:50.197Z,933.65
2022-10-06T04:52:50.151Z,933.63
2022-10-06T04:53:50.166Z,933.66
2022-10-06T04:54:50.179Z,933.62
2022-10-06T04:55:50.194Z,933.63
2022-10-06T04:56:50.208Z,933.56
2022-10-06T04:57:50.229Z,933.59
2022-10-06T04:58:50.235Z,933.60
2022-10-06T04:59:50.252Z,933.60
2022-10-06T05:00:50.333Z,933.59
2022-10-06T05:01:50.291Z,933.62
2022-10-06T05:02:50.291Z,933.62
2022-10-06T05:03:50.327Z,933.64
2022-10-06T05:04:50.319Z,933.57
2022-10-06T05:05:50.332Z,933.54
2022-10-06T05:06:50.346Z,933.51
2022-10-06T05:07:50.359Z,933.45
2022-10-06T05:08:50.375Z,933.38
2022-10-06T05:09:50.388Z,933.34
2022-10-06T05:10:50.405Z,933.29
2022-10-06T05:11:50.416Z,933.25
2022-10-06T05:12:50.432Z,933.22
2022-10-06T05:13:50.470Z,933.24
2022-10-06T05:14:50.459Z,933.30
2022-10-06T05:15:50.472Z,933.27
2022-10-06T05:16:50.535Z,933.24
2022-10-06T05:17:50.497Z,933.24
2022-10-06T05:18:50.512Z,933.22
2022-10-06T05:19:50.545Z,933.20
2022-10-06T05:20:50.541Z,933.20
2022-10-06T05:21:50.552Z,933.19
2022-10-06T05:22:50.573Z,933.13
2022-10-06T05:23:50.582Z,933.10
2022-10-06T05:24:50.598Z,933.05
2022-10-06T05:25:50.612Z,933.05
2022-10-06T05:26:50.622Z,933.00
2022-10-06T05:27:50.637Z,933.00
2022-10-06T05:28:50.810Z,933.02
2022-10-06T05:29:50.664Z,932.97
2022-10-06T05:30:50.679Z,932.97
2022-10-06T05:31:50.729Z,933.00
2022-10-06T05:32:50.708Z,932.99
2022-10-06T05:33:50.721Z,932.95
2022-10-06T05:34:50.733Z,932.97
2022-10-06T05:35:50.770Z,932.91
2022-10-06T05:36:50.763Z,932.89
2022-10-06T05:37:50.776Z,932.89
2022-10-06T05:38:50.788Z,932.87
2022-10-06T05:39:50.806Z,932.88
2022-10-06T05:40:50.817Z,932.88
2022-10-06T05:41:50.831Z,932.86
2022-10-06T05:42:50.843Z,932.82
2022-10-06T05:43:50.858Z,932.83
2022-10-06T05:44:50.872Z,932.86
2022-10-06T05:45:50.928Z,932.88
2022-10-06T05:46:50.901Z,932.91
2022-10-06T05:47:50.917Z,932.93
2022-10-06T05:48:50.928Z,932.95
2022-10-06T05:49:50.942Z,932.93
2022-10-06T05:50:50.954Z,932.85
2022-10-06T05:51:50.989Z,932.87
2022-10-06T05:52:50.982Z,932.84
2022-10-06T05:53:50.995Z,932.84
2022-10-06T05:54:51.011Z,932.83
2022-10-06T05:55:51.024Z,932.87
2022-10-06T05:56:51.038Z,932.84
2022-10-06T05:57:51.052Z,932.82
2022-10-06T05:58:51.065Z,932.85
2022-10-06T05:59:51.079Z,932.87
2022-10-06T06:00:51.250Z,932.83
2022-10-06T06:01:51.206Z,932.83
2022-10-06T06:02:51.213Z,932.84
2022-10-06T06:03:51.144Z,932.87
2022-10-06T06:04:51.147Z,932.88
2022-10-06T06:05:51.161Z,932.91
2022-10-06T06:06:51.176Z,932.91
2022-10-06T06:07:51.209Z,932.90
2022-10-06T06:08:51.214Z,932.96
2022-10-06T06:09:51.217Z,932.92
2022-10-06T06:10:51.231Z,932.95
2022-10-06T06:11:51.245Z,932.92
2022-10-06T06:12:51.257Z,932.93
2022-10-06T06:13:51.272Z,932.95
2022-10-06T06:14:51.288Z,932.91
2022-10-06T06:15:51.300Z,932.91
2022-10-06T06:16:51.387Z,932.92
2022-10-06T06:17:51.327Z,932.90
2022-10-06T06:18:51.340Z,932.91
2022-10-06T06:19:51.355Z,932.87
2022-10-06T06:20:51.371Z,932.84
2022-10-06T06:21:51.380Z,932.83
2022-10-06T06:22:51.396Z,932.86
2022-10-06T06:23:51.433Z,932.86
2022-10-06T06:24:51.424Z,932.85
2022-10-06T06:25:51.437Z,932.91
2022-10-06T06:26:51.454Z,932.94
2022-10-06T06:27:51.467Z,932.91
2022-10-06T06:28:51.551Z,932.95
2022-10-06T06:29:51.497Z,932.94
2022-10-06T06:30:51.556Z,932.93
2022-10-06T06:31:51.520Z,932.92
2022-10-06T06:32:51.535Z,932.88
2022-10-06T06:33:51.549Z,932.89
2022-10-06T06:34:51.565Z,932.93
2022-10-06T06:35:51.578Z,932.88
2022-10-06T06:36:51.590Z,932.96
2022-10-06T06:37:51.610Z,932.97
2022-10-06T06:38:51.617Z,932.96
2022-10-06T06:39:51.650Z,933.00
2022-10-06T06:40:51.644Z,932.94
2022-10-06T06:41:51.659Z,932.96
2022-10-06T06:42:53.958Z,932.93
2022-10-06T06:43:51.685Z,932.93
2022-10-06T06:44:51.703Z,932.94
2022-10-06T06:45:51.764Z,932.94
2022-10-06T06:46:51.727Z,932.96
2022-10-06T06:47:51.741Z,932.93
2022-10-06T06:48:51.759Z,932.92
2022-10-06T06:49:51.768Z,932.91
2022-10-06T06:50:51.783Z,932.84
2022-10-06T06:51:51.796Z,932.89
2022-10-06T06:52:51.808Z,932.83
2022-10-06T06:53:51.831Z,932.80
2022-10-06T06:54:51.835Z,932.76
2022-10-06T06:55:51.868Z,932.77
2022-10-06T06:56:51.866Z,932.73
2022-10-06T06:57:51.879Z,932.71
2022-10-06T06:58:51.892Z,932.75
2022-10-06T06:59:51.904Z,932.71
2022-10-06T07:00:52.051Z,932.66
2022-10-06T07:01:52.021Z,932.66
2022-10-06T07:02:51.946Z,932.66
2022-10-06T07:03:57.736Z,932.66
2022-10-06T07:04:51.975Z,932.63
2022-10-06T07:05:51.986Z,932.62
2022-10-06T07:06:52.000Z,932.61
2022-10-06T07:07:52.016Z,932.63
2022-10-06T07:08:52.028Z,932.62
2022-10-06T07:09:52.041Z,932.58
2022-10-06T07:10:52.058Z,932.64
2022-10-06T07:11:52.088Z,932.64
2022-10-06T07:12:52.085Z,932.64
2022-10-06T07:13:52.096Z,932.64
2022-10-06T07:14:52.111Z,932.67
2022-10-06T07:15:52.188Z,932.59
2022-10-06T07:16:52.137Z,932.59
2022-10-06T07:17:52.150Z,932.57
2022-10-06T07:18:52.169Z,932.57
2022-10-06T07:19:52.183Z,932.66
2022-10-06T07:20:52.193Z,932.65
2022-10-06T07:21:52.207Z,932.76
2022-10-06T07:22:52.221Z,932.77
2022-10-06T07:23:52.235Z,932.79
2022-10-06T07:24:52.253Z,932.77
2022-10-06T07:25:52.261Z,932.74
2022-10-06T07:26:52.280Z,932.76
2022-10-06T07:27:52.309Z,932.80
2022-10-06T07:28:52.303Z,932.77
2022-10-06T07:29:52.689Z,932.74
2022-10-06T07:30:52.331Z,932.73
2022-10-06T07:31:52.345Z,932.67
2022-10-06T07:32:52.357Z,932.67
2022-10-06T07:33:52.372Z,932.63
2022-10-06T07:34:52.719Z,932.62
2022-10-06T07:35:52.404Z,932.63
2022-10-06T07:36:52.413Z,932.67
2022-10-06T07:37:52.427Z,932.69
2022-10-06T07:38:52.439Z,932.67
2022-10-06T07:39:52.454Z,932.69
2022-10-06T07:41:07.644Z,932.66
2022-10-06T07:41:52.479Z,932.67
2022-10-06T07:42:52.551Z,932.69
2022-10-06T07:43:52.568Z,932.72
2022-10-06T07:44:52.659Z,932.71
2022-10-06T07:45:52.579Z,932.66
2022-10-06T07:46:52.548Z,932.65
2022-10-06T07:47:52.562Z,932.65
2022-10-06T07:48:52.577Z,932.60
2022-10-06T07:49:52.590Z,932.67
2022-10-06T07:50:52.608Z,932.66
2022-10-06T07:51:52.619Z,932.67
2022-10-06T07:52:52.633Z,932.66
2022-10-06T07:53:52.643Z,932.68
2022-10-06T07:54:53.000Z,932.69
2022-10-06T07:55:52.671Z,932.71
2022-10-06T07:56:52.688Z,932.68
2022-10-06T07:57:52.699Z,932.61
2022-10-06T07:58:52.714Z,932.60
2022-10-06T07:59:52.747Z,932.59
2022-10-06T08:00:52.743Z,932.53
2022-10-06T08:01:52.856Z,932.51
2022-10-06T08:02:52.835Z,932.47
2022-10-06T08:03:52.783Z,932.47
2022-10-06T08:04:52.979Z,932.48
2022-10-06T08:05:52.809Z,932.49
2022-10-06T08:06:52.824Z,932.46
2022-10-06T08:07:52.851Z,932.52
2022-10-06T08:08:53.472Z,932.54
2022-10-06T08:09:52.865Z,932.55
2022-10-06T08:10:52.875Z,932.54
2022-10-06T08:11:52.892Z,932.54
2022-10-06T08:12:52.906Z,932.58
2022-10-06T08:13:52.917Z,932.56
2022-10-06T08:14:53.107Z,932.54
2022-10-06T08:15:53.028Z,932.55
2022-10-06T08:16:52.959Z,932.55
2022-10-06T08:17:52.973Z,932.55
2022-10-06T08:18:52.989Z,932.48
2022-10-06T08:19:53.000Z,932.47
2022-10-06T08:20:53.013Z,932.44
2022-10-06T08:21:53.027Z,932.47
2022-10-06T08:22:53.040Z,932.49
2022-10-06T08:23:53.057Z,932.53
2022-10-06T08:25:05.260Z,932.53
2022-10-06T08:25:53.081Z,932.55
2022-10-06T08:26:53.094Z,932.58
2022-10-06T08:27:53.711Z,932.59
2022-10-06T08:28:53.123Z,932.64
2022-10-06T08:29:53.137Z,932.62
2022-10-06T08:30:53.150Z,932.69
2022-10-06T08:31:53.316Z,932.70
2022-10-06T08:32:53.188Z,932.76
2022-10-06T08:33:53.191Z,932.78
2022-10-06T08:34:53.546Z,932.76
2022-10-06T08:35:53.219Z,932.80
2022-10-06T08:37:18.784Z,932.78
2022-10-06T08:37:53.246Z,932.79
2022-10-06T08:38:53.261Z,932.77
2022-10-06T08:39:53.274Z,932.78
2022-10-06T08:40:53.389Z,932.80
2022-10-06T08:41:53.300Z,932.82
2022-10-06T08:42:53.314Z,932.82
2022-10-06T08:43:53.327Z,932.83
2022-10-06T08:44:53.536Z,932.82
2022-10-06T08:46:53.390Z,932.80
2022-10-06T08:47:53.405Z,932.85
2022-10-06T08:48:53.396Z,932.85
2022-10-06T08:49:53.593Z,932.85
2022-10-06T08:50:53.427Z,932.84
2022-10-06T08:51:53.435Z,932.85
2022-10-06T08:52:53.456Z,932.87
2022-10-06T08:53:53.462Z,932.90
2022-10-06T08:54:53.475Z,932.89
2022-10-06T08:55:53.491Z,932.92
2022-10-06T08:56:53.504Z,932.91
2022-10-06T08:57:53.516Z,932.95
2022-10-06T08:58:53.531Z,932.92
2022-10-06T08:59:53.884Z,932.95
2022-10-06T09:00:53.591Z,932.93
2022-10-06T09:01:53.688Z,932.94
2022-10-06T09:02:53.585Z,932.93
2022-10-06T09:03:53.619Z,932.92
2022-10-06T09:04:53.616Z,932.91
2022-10-06T09:05:53.626Z,932.94
2022-10-06T09:06:53.640Z,932.97
2022-10-06T09:07:53.656Z,932.99
2022-10-06T09:08:53.672Z,932.96
2022-10-06T09:09:54.156Z,932.97
2022-10-06T09:10:53.697Z,932.94
2022-10-06T09:11:53.710Z,932.98
2022-10-06T09:12:53.721Z,932.92
2022-10-06T09:13:53.736Z,932.95
2022-10-06T09:14:53.749Z,932.98
2022-10-06T09:15:53.820Z,933.02
2022-10-06T09:16:53.784Z,933.08
2022-10-06T09:17:53.790Z,933.13
2022-10-06T09:19:08.315Z,933.20
2022-10-06T09:19:54.304Z,933.21
2022-10-06T09:20:53.831Z,933.18
2022-10-06T09:21:53.894Z,933.22
2022-10-06T09:22:53.857Z,933.21
2022-10-06T09:23:53.898Z,933.21
2022-10-06T09:24:53.885Z,933.22
2022-10-06T09:25:53.899Z,933.22
2022-10-06T09:26:53.940Z,933.20
2022-10-06T09:27:53.928Z,933.24
2022-10-06T09:28:53.940Z,933.25
2022-10-06T09:29:54.346Z,933.26
2022-10-06T09:30:55.441Z,933.24
2022-10-06T09:31:53.979Z,933.25
2022-10-06T09:32:53.995Z,933.22
2022-10-06T09:33:54.008Z,933.16
2022-10-06T09:34:54.019Z,933.23
2022-10-06T09:35:54.136Z,933.25
2022-10-06T09:36:57.694Z,933.28
2022-10-06T09:37:54.062Z,933.31
2022-10-06T09:38:54.105Z,933.36
2022-10-06T09:39:54.385Z,933.41
2022-10-06T09:40:54.104Z,933.40
2022-10-06T09:41:54.117Z,933.42
2022-10-06T09:42:54.130Z,933.41
2022-10-06T09:43:54.143Z,933.38
2022-10-06T09:44:54.158Z,933.35
2022-10-06T09:45:54.169Z,933.35
2022-10-06T09:46:54.183Z,933.31
2022-10-06T09:47:54.197Z,933.31
2022-10-06T09:48:54.211Z,933.29
2022-10-06T09:49:54.583Z,933.29
2022-10-06T09:50:54.244Z,933.28
2022-10-06T09:51:54.271Z,933.31
2022-10-06T09:52:54.265Z,933.31
2022-10-06T09:53:54.279Z,933.32
2022-10-06T09:54:54.294Z,933.34
2022-10-06T09:55:54.305Z,933.33
2022-10-06T09:56:54.321Z,933.35
2022-10-06T09:57:54.333Z,933.35
2022-10-06T09:58:54.348Z,933.32
2022-10-06T09:59:54.725Z,933.38
2022-10-06T10:00:54.407Z,933.35
2022-10-06T10:01:54.387Z,933.38
2022-10-06T10:02:54.480Z,933.39
2022-10-06T10:04:18.721Z,933.39
2022-10-06T10:04:54.430Z,933.37
2022-10-06T10:05:54.441Z,933.36
2022-10-06T10:06:54.455Z,933.32
2022-10-06T10:07:54.489Z,933.36
2022-10-06T10:08:54.483Z,933.33
2022-10-06T10:09:54.890Z,933.35
2022-10-06T10:10:54.510Z,933.35
2022-10-06T10:11:54.530Z,933.35
2022-10-06T10:12:54.537Z,933.36
2022-10-06T10:13:54.550Z,933.36
2022-10-06T10:14:54.565Z,933.38
2022-10-06T10:15:54.620Z,933.36
2022-10-06T10:16:54.594Z,933.35
2022-10-06T10:17:54.604Z,933.38
2022-10-06T10:18:54.618Z,933.33
2022-10-06T10:19:54.858Z,933.37
2022-10-06T10:20:54.646Z,933.43
2022-10-06T10:21:54.658Z,933.42
2022-10-06T10:22:54.673Z,933.39
2022-10-06T10:23:54.704Z,933.36
2022-10-06T10:24:54.701Z,933.42
2022-10-06T10:25:54.713Z,933.43
2022-10-06T10:26:54.727Z,933.41
2022-10-06T10:27:54.740Z,933.39
2022-10-06T10:28:54.752Z,933.40
2022-10-06T10:29:55.015Z,933.39
2022-10-06T10:30:54.838Z,933.43
2022-10-06T10:31:54.903Z,933.45
2022-10-06T10:32:54.806Z,933.40
2022-10-06T10:34:05.383Z,933.42
2022-10-06T10:34:55.231Z,933.41
2022-10-06T10:35:54.847Z,933.42
2022-10-06T10:36:54.861Z,933.46
2022-10-06T10:37:54.875Z,933.50
2022-10-06T10:38:54.893Z,933.49
2022-10-06T10:39:54.919Z,933.48
2022-10-06T10:40:54.918Z,933.45
2022-10-06T10:41:54.929Z,933.45
2022-10-06T10:42:54.945Z,933.46
2022-10-06T10:43:54.956Z,933.42
2022-10-06T10:44:55.376Z,933.50
2022-10-06T10:45:54.983Z,933.55
2022-10-06T10:46:55.115Z,933.49
2022-10-06T10:47:55.013Z,933.39
2022-10-06T10:48:55.025Z,933.43
2022-10-06T10:49:55.039Z,933.40
2022-10-06T10:50:55.054Z,933.27
2022-10-06T10:51:55.066Z,933.34
2022-10-06T10:52:55.079Z,933.34
2022-10-06T10:53:55.092Z,933.34
2022-10-06T10:54:55.441Z,933.33
2022-10-06T10:55:55.140Z,933.33
2022-10-06T10:56:55.135Z,933.32
2022-10-06T10:57:55.147Z,933.33
2022-10-06T10:58:55.159Z,933.26
2022-10-06T10:59:55.174Z,933.29
2022-10-06T11:00:55.215Z,933.34
2022-10-06T11:01:55.246Z,933.36
2022-10-06T11:02:55.216Z,933.30
2022-10-06T11:03:55.228Z,933.37
2022-10-06T11:04:55.604Z,933.34
2022-10-06T11:05:55.659Z,933.36
2022-10-06T11:06:55.272Z,933.30
2022-10-06T11:07:55.283Z,933.29
2022-10-06T11:08:55.296Z,933.35
2022-10-06T11:09:55.313Z,933.31
2022-10-06T11:10:55.325Z,933.36
2022-10-06T11:11:55.456Z,933.41
2022-10-06T11:12:55.352Z,933.40
2022-10-06T11:13:55.363Z,933.40
2022-10-06T11:14:55.705Z,933.45
2022-10-06T11:15:55.436Z,933.43
2022-10-06T11:16:55.407Z,933.44
2022-10-06T11:17:55.426Z,933.47
2022-10-06T11:18:55.431Z,933.40
2022-10-06T11:19:55.450Z,933.43
2022-10-06T11:20:55.458Z,933.53
2022-10-06T11:21:55.519Z,933.52
2022-10-06T11:22:55.487Z,933.51
2022-10-06T11:23:55.506Z,933.55
2022-10-06T11:24:55.803Z,933.53
2022-10-06T11:25:55.528Z,933.53
2022-10-06T11:26:55.539Z,933.52
2022-10-06T11:27:55.771Z,933.54
2022-10-06T11:28:55.572Z,933.64
2022-10-06T11:29:55.858Z,933.61
2022-10-06T11:30:55.593Z,933.63
2022-10-06T11:31:55.743Z,933.56
2022-10-06T11:32:55.623Z,933.53
2022-10-06T11:33:55.642Z,933.58
2022-10-06T11:34:55.648Z,933.53
2022-10-06T11:35:55.664Z,933.52
2022-10-06T11:36:55.680Z,933.50
2022-10-06T11:37:55.689Z,933.52
2022-10-06T11:38:55.704Z,933.45
2022-10-06T11:39:56.111Z,933.43
2022-10-06T11:40:55.733Z,933.46
2022-10-06T11:41:55.848Z,933.47
2022-10-06T11:42:55.765Z,933.40
2022-10-06T11:43:55.789Z,933.41
2022-10-06T11:44:56.158Z,933.42
2022-10-06T11:45:55.823Z,933.45
2022-10-06T11:46:55.812Z,933.46
2022-10-06T11:47:55.827Z,933.39
2022-10-06T11:48:55.840Z,933.36
2022-10-06T11:49:55.866Z,933.33
2022-10-06T11:50:55.868Z,933.35
2022-10-06T11:51:59.613Z,933.30
2022-10-06T11:52:55.900Z,933.32
2022-10-06T11:53:55.908Z,933.29
2022-10-06T11:54:56.200Z,933.24
2022-10-06T11:55:55.938Z,933.20
2022-10-06T11:56:55.951Z,933.25
2022-10-06T11:57:55.963Z,933.22
2022-10-06T11:58:55.992Z,933.21
2022-10-06T11:59:56.009Z,933.19
2022-10-06T12:00:56.006Z,933.22
2022-10-06T12:01:56.255Z,933.19
2022-10-06T12:02:56.232Z,933.20
2022-10-06T12:03:56.047Z,933.19
2022-10-06T12:04:56.436Z,933.11
2022-10-06T12:05:57.057Z,933.11
2022-10-06T12:06:56.088Z,933.04
2022-10-06T12:07:56.099Z,933.00
2022-10-06T12:08:56.114Z,933.02
2022-10-06T12:09:56.128Z,933.01
2022-10-06T12:10:56.139Z,933.05
2022-10-06T12:11:56.156Z,933.04
2022-10-06T12:13:13.903Z,933.03
2022-10-06T12:17:11.448Z,932.93
2022-10-06T12:17:56.236Z,932.94
2022-10-06T12:18:56.734Z,932.96
2022-10-06T12:19:56.265Z,932.92
2022-10-06T12:20:56.276Z,932.94
2022-10-06T12:21:56.291Z,932.97
2022-10-06T12:22:56.305Z,932.91
2022-10-06T12:23:56.318Z,932.91
2022-10-06T12:24:56.630Z,932.86
2022-10-06T12:25:56.347Z,932.83
2022-10-06T12:26:56.358Z,932.82
2022-10-06T12:27:56.448Z,932.78
2022-10-06T12:28:56.395Z,932.73
2022-10-06T12:29:56.612Z,932.74
2022-10-06T12:30:56.441Z,932.72
2022-10-06T12:31:56.446Z,932.71
2022-10-06T12:32:56.462Z,932.71